FHAW

Details ICAO FHAW
Name Ascension Wideawake Field
Region Saint Helena, Ascension and Tristan da Cunha
Timezone Atlantic/St_Helena (UTC+0.0)
Plans Departing 28
Arriving 44
Stats Elevation 278 ft / 85 m (AMSL)
Location -7.969590° -14.393699°
Runways 1
Magnetic Variation 15.468° W
Sunrise 2017-03-24 07:02:31 UTC / 2017-03-24 07:02:31 Local
Sunset 2017-03-24 19:07:34 UTC / 2017-03-24 19:07:34 Local
Advertisement - Login to hide

Runways

ID Width Length Bearing (true) Bearing (mag) Surface Threshold Offset Overrun Length
13 148 ft / 45 m 10,008 ft / 3,050 m 116.79° 132.26° Asphalt 0 ft / 0 m 262 ft / 80 m
31 148 ft / 45 m 10,008 ft / 3,050 m 296.79° 312.26° Asphalt 0 ft / 0 m 495 ft / 151 m

Map

Weather

Temperature
Clouds and Precipitation
Forecast for 2017-03-24 12:00 UTC. Updated 34 minutes ago
Winds

METAR

FHAW 241050Z 15014KT 9999 FEW021 30/20 Q1014 BLU NOSIG

TAF

TAF FHAW 240730Z 2409/2503 14012KT 9999 FEW021 PROB30 TEMPO 2412/2503 SCT016

Frequencies

Tower 126.20 MHz Wideawake Tower
Warning: Do not use this data for real-world aviation or navigation. No guarantee of current accuracy is given.